Time;durP1;ratioP1;P1;durP2;ratioP2;P2;SDS_P1;SDS_P2;PMS_P1;PMS_P2;Temp;Humidity;BMP_temperature;BMP_pressure;BME280_temperature;BME280_humidity;BME280_pressure;Samples;Min_cycle;Max_cycle;Signal;HPM_P1;HPM_P2
2021/12/13 00:00:12;;;;;;;1.80;1.70;;;;;;;19.82;46.38;98244.69;4908331;29;20268;-89
2021/12/13 00:02:50;;;;;;;2.10;1.80;;;;;;;19.68;46.57;98220.19;4941435;29;20231;-89
2021/12/13 00:05:46;;;;;;;1.90;1.80;;;;;;;19.82;46.11;98265.09;4928225;29;20212;-88
2021/12/13 00:08:20;;;;;;;1.70;1.60;;;;;;;17.86;46.41;97903.06;4943563;28;20213;-87
2021/12/13 00:10:50;;;;;;;1.90;1.80;;;;;;;18.15;46.02;97952.00;4929359;29;20220;-89
2021/12/13 00:13:21;;;;;;;1.80;1.70;;;;;;;18.82;45.99;98068.19;4913028;29;20292;-87
2021/12/13 00:15:54;;;;;;;2.07;1.90;;;;;;;16.89;46.22;97744.81;4928485;29;20205;-88
2021/12/13 00:18:25;;;;;;;1.70;1.60;;;;;;;17.38;45.87;97854.84;4928906;29;20219;-88
2021/12/13 00:21:23;;;;;;;2.00;1.90;;;;;;;19.09;46.22;98135.75;4925339;29;20216;-88
2021/12/13 00:23:55;;;;;;;1.87;1.77;;;;;;;15.47;45.98;97493.13;4917103;29;20205;-88
2021/12/13 00:26:40;;;;;;;1.97;1.67;;;;;;;18.03;46.28;97935.28;4944555;28;20213;-90
2021/12/13 00:29:15;;;;;;;1.73;1.63;;;;;;;19.46;46.43;98200.47;4929562;29;20209;-88
2021/12/13 00:32:18;;;;;;;1.93;1.83;;;;;;;20.81;46.20;98409.41;4913389;29;20263;-89
2021/12/13 00:34:54;;;;;;;1.80;1.70;;;;;;;17.03;46.20;97763.28;4927689;29;20209;-89
2021/12/13 00:37:28;;;;;;;1.87;1.77;;;;;;;17.28;46.32;97834.81;4928620;29;20209;-89
2021/12/13 00:40:13;;;;;;;1.90;1.80;;;;;;;17.58;46.28;97870.31;4930387;29;20209;-89
2021/12/13 00:43:12;;;;;;;1.97;1.87;;;;;;;19.98;46.42;98291.41;4909873;29;20746;-89
2021/12/13 00:45:54;;;;;;;2.00;1.90;;;;;;;18.15;46.27;97979.13;4898460;29;20729;-89
2021/12/13 00:48:22;;;;;;;1.83;1.73;;;;;;;17.61;46.38;97884.84;4920756;29;20232;-88
2021/12/13 00:51:11;;;;;;;1.80;1.70;;;;;;;20.78;46.48;98412.66;4927465;29;20220;-89
2021/12/13 00:53:42;;;;;;;1.90;1.80;;;;;;;16.26;46.14;97629.91;4944261;29;20201;-89
2021/12/13 00:56:46;;;;;;;2.00;1.90;;;;;;;20.78;46.21;98412.66;4928539;29;20216;-90
2021/12/13 00:59:48;;;;;;;1.97;1.87;;;;;;;18.15;46.13;97962.19;4943727;29;20208;-89
2021/12/13 01:02:15;;;;;;;1.73;1.63;;;;;;;20.79;46.16;98416.09;4943611;28;20224;-89
2021/12/13 01:05:07;;;;;;;1.80;1.70;;;;;;;19.90;46.34;98261.25;4946258;29;20229;-89
2021/12/13 01:07:33;;;;;;;1.80;1.70;;;;;;;20.79;46.51;98422.09;4947281;29;20216;-89
2021/12/13 01:10:38;;;;;;;1.83;1.73;;;;;;;20.78;46.46;98415.22;4948955;28;20217;-89
2021/12/13 01:13:13;;;;;;;1.80;1.70;;;;;;;18.67;46.33;98056.38;4948334;29;20221;-89
2021/12/13 01:15:48;;;;;;;1.83;1.73;;;;;;;20.04;46.27;98312.91;4921473;29;20197;-89
2021/12/13 01:18:32;;;;;;;1.80;1.70;;;;;;;19.13;46.11;98139.31;4917043;29;20208;-89
2021/12/13 01:21:13;;;;;;;1.60;1.50;;;;;;;19.06;46.32;98132.16;4919005;29;20292;-88
2021/12/13 01:23:47;;;;;;;1.70;1.60;;;;;;;19.37;46.38;98181.31;4947732;28;20548;-89
2021/12/13 01:26:41;;;;;;;1.83;1.73;;;;;;;18.61;46.08;98082.41;4916805;29;20223;-89
2021/12/13 01:29:17;;;;;;;1.80;1.70;;;;;;;17.96;46.18;97945.94;4935629;29;20212;-90
2021/12/13 01:31:59;;;;;;;1.63;1.53;;;;;;;19.98;46.38;98331.34;4932411;29;20231;-88
2021/12/13 01:34:27;;;;;;;1.60;1.50;;;;;;;17.10;46.26;97838.97;4931378;29;20193;-89
2021/12/13 01:37:09;;;;;;;1.80;1.57;;;;;;;18.06;46.29;97996.47;4931251;29;20209;-89
2021/12/13 01:39:45;;;;;;;1.87;1.77;;;;;;;19.11;46.38;98156.19;4918432;29;20197;-89
2021/12/13 01:42:23;;;;;;;1.60;1.50;;;;;;;16.84;45.96;97753.00;4932633;29;20845;-89
2021/12/13 01:44:52;;;;;;;1.80;1.70;;;;;;;19.24;46.31;98191.66;4930093;29;20263;-90
2021/12/13 01:47:30;;;;;;;1.80;1.70;;;;;;;17.81;46.12;97914.66;4930797;29;20209;-88
2021/12/13 01:50:18;;;;;;;1.70;1.60;;;;;;;16.57;46.23;97727.06;4910172;29;20213;-88
2021/12/13 01:52:49;;;;;;;1.80;1.70;;;;;;;18.11;46.23;97975.56;4933555;29;20217;-88
2021/12/13 01:55:31;;;;;;;1.70;1.60;;;;;;;19.11;46.19;98167.28;4914731;29;20217;-88
2021/12/13 01:58:36;;;;;;;1.80;1.70;;;;;;;20.01;46.06;98294.91;4929956;29;20350;-89
2021/12/13 02:01:10;;;;;;;1.80;1.70;;;;;;;16.56;46.14;97744.75;4930178;29;20217;-89
2021/12/13 02:04:05;;;;;;;1.67;1.57;;;;;;;20.81;46.21;98447.72;4945449;29;20269;-89
2021/12/13 02:06:32;;;;;;;1.80;1.70;;;;;;;20.80;46.10;98441.72;4943809;29;20205;-88
2021/12/13 02:09:17;;;;;;;1.67;1.57;;;;;;;19.89;46.08;98297.72;4946670;29;20694;-87
2021/12/13 02:11:46;;;;;;;1.70;1.60;;;;;;;18.91;46.11;98124.66;4912590;29;20534;-88
2021/12/13 02:14:17;;;;;;;1.90;1.80;;;;;;;17.93;45.91;97967.00;4913456;29;20207;-89
2021/12/13 02:17:15;;;;;;;1.67;1.57;;;;;;;20.79;46.14;98437.44;4913700;29;20747;-88
2021/12/13 02:20:00;;;;;;;1.80;1.70;;;;;;;20.37;46.24;98363.03;4933540;29;20213;-88
2021/12/13 02:22:50;;;;;;;2.20;2.00;;;;;;;19.26;46.39;98180.75;4946069;29;20228;-88
2021/12/13 02:25:30;;;;;;;1.80;1.70;;;;;;;20.78;46.04;98429.69;4944186;29;20249;-87
2021/12/13 02:28:19;;;;;;;2.10;1.90;;;;;;;19.41;46.11;98191.72;4946908;29;20237;-87
2021/12/13 02:30:55;;;;;;;1.70;1.60;;;;;;;19.42;46.33;98208.75;4946659;29;20206;-88
2021/12/13 02:33:34;;;;;;;1.73;1.63;;;;;;;20.78;46.08;98438.22;4930248;29;20224;-88
2021/12/13 02:36:05;;;;;;;1.60;1.50;;;;;;;19.70;46.05;98285.78;4927761;29;20841;-88
2021/12/13 02:38:33;;;;;;;1.40;1.30;;;;;;;16.52;46.27;97694.66;4927188;29;20213;-88
2021/12/13 02:41:03;;;;;;;2.00;1.90;;;;;;;18.89;46.20;98097.38;4933469;29;20679;-88
2021/12/13 02:43:50;;;;;;;1.70;1.60;;;;;;;19.07;46.18;98126.28;4945672;29;20221;-88
2021/12/13 02:46:17;;;;;;;1.80;1.70;;;;;;;17.99;46.16;97962.22;4904177;29;20229;-88
2021/12/13 02:48:52;;;;;;;1.70;1.60;;;;;;;19.82;46.11;98260.00;4944950;29;20724;-88
2021/12/13 02:51:30;;;;;;;1.80;1.70;;;;;;;20.78;46.26;98435.66;4928748;29;20257;-89
2021/12/13 02:54:06;;;;;;;1.70;1.60;;;;;;;17.98;45.99;97951.97;4948688;29;20224;-87
2021/12/13 02:56:37;;;;;;;1.77;1.67;;;;;;;18.74;45.96;98089.84;4943384;29;20205;-88
2021/12/13 02:59:04;;;;;;;1.77;1.67;;;;;;;20.78;46.09;98435.66;4936129;29;20225;-88
2021/12/13 03:01:50;;;;;;;1.67;1.57;;;;;;;20.42;46.17;98361.53;4931158;29;20675;-88
2021/12/13 03:04:19;;;;;;;1.77;1.67;;;;;;;16.69;46.03;97721.78;4901341;29;20201;-88
2021/12/13 03:06:58;;;;;;;1.60;1.50;;;;;;;20.80;45.99;98433.16;4913920;29;20205;-88
2021/12/13 03:09:27;;;;;;;1.80;1.70;;;;;;;20.01;46.15;98292.34;4945469;29;20208;-88
2021/12/13 03:11:59;;;;;;;2.03;1.93;;;;;;;18.10;45.85;97981.44;4929781;29;20287;-87
2021/12/13 03:14:29;;;;;;;2.10;2.00;;;;;;;19.83;46.31;98285.56;4928656;29;20197;-87
2021/12/13 03:17:20;;;;;;;2.10;1.90;;;;;;;20.78;46.05;98433.09;4929188;29;20238;-89
2021/12/13 03:20:05;;;;;;;1.80;1.70;;;;;;;20.79;46.15;98434.00;4935995;29;20217;-88
2021/12/13 03:23:10;;;;;;;1.90;1.80;;;;;;;20.79;46.03;98439.97;4946048;29;20261;-88
2021/12/13 03:25:52;;;;;;;1.50;1.40;;;;;;;20.79;46.12;98441.66;4945418;29;20223;-89
2021/12/13 03:28:21;;;;;;;1.73;1.63;;;;;;;20.06;46.19;98304.50;4945393;29;20209;-88
2021/12/13 03:30:58;;;;;;;1.83;1.73;;;;;;;20.78;46.14;98428.00;4945102;29;20205;-88
2021/12/13 03:33:54;;;;;;;2.13;1.93;;;;;;;19.07;46.46;98136.47;4943391;29;20204;-87
2021/12/13 03:36:49;;;;;;;1.83;1.73;;;;;;;20.35;46.07;98378.28;4910118;29;20212;-87
2021/12/13 03:39:20;;;;;;;1.70;1.60;;;;;;;20.78;46.08;98440.75;4926990;29;20213;-87
2021/12/13 03:41:51;;;;;;;1.83;1.73;;;;;;;17.83;46.00;97934.28;4940062;29;20227;-88
2021/12/13 03:44:31;;;;;;;1.80;1.70;;;;;;;20.78;46.09;98438.22;4929034;29;20220;-88
2021/12/13 03:47:08;;;;;;;1.73;1.63;;;;;;;19.84;46.19;98320.47;4944692;29;20213;-87
2021/12/13 03:49:46;;;;;;;1.90;1.80;;;;;;;20.77;45.99;98444.13;4929772;29;20255;-87
2021/12/13 03:52:23;;;;;;;1.90;1.80;;;;;;;19.51;46.20;98236.38;4915476;29;20228;-89
2021/12/13 03:55:09;;;;;;;2.03;1.90;;;;;;;19.34;46.15;98199.88;4931989;29;20264;-88
2021/12/13 03:57:38;;;;;;;1.90;1.80;;;;;;;18.17;46.13;98006.38;4944895;29;20209;-88
2021/12/13 04:00:08;;;;;;;1.83;1.73;;;;;;;18.89;46.34;98127.94;4928929;29;20200;-87
2021/12/13 04:02:37;;;;;;;1.90;1.80;;;;;;;19.32;45.92;98198.03;4930360;29;20248;-88
2021/12/13 04:05:17;;;;;;;1.80;1.70;;;;;;;18.13;46.28;98004.50;4939284;29;20221;-89
2021/12/13 04:07:47;;;;;;;1.60;1.50;;;;;;;18.86;45.85;98108.28;4919452;29;20220;-88
2021/12/13 04:10:28;;;;;;;1.90;1.80;;;;;;;17.86;45.85;97964.94;4925385;29;20213;-88
2021/12/13 04:12:57;;;;;;;1.70;1.60;;;;;;;19.34;46.20;98209.19;4923159;29;20248;-88
2021/12/13 04:15:51;;;;;;;2.17;1.97;;;;;;;18.06;45.99;98011.75;4943400;29;20208;-88
2021/12/13 04:18:40;;;;;;;1.93;1.83;;;;;;;20.66;45.86;98452.97;4933762;29;20208;-88
2021/12/13 04:21:11;;;;;;;1.90;1.80;;;;;;;20.50;45.95;98416.41;4937402;29;20307;-87
2021/12/13 04:23:38;;;;;;;1.80;1.70;;;;;;;19.15;46.07;98194.63;4931774;29;20209;-87
2021/12/13 04:26:06;;;;;;;2.17;1.97;;;;;;;19.89;46.13;98316.47;4912892;29;20260;-88
2021/12/13 04:28:42;;;;;;;1.87;1.77;;;;;;;18.41;46.00;98061.88;4927149;29;20284;-88
2021/12/13 04:31:12;;;;;;;1.87;1.77;;;;;;;20.21;46.06;98373.28;4934451;29;20205;-87
2021/12/13 04:33:43;;;;;;;2.10;1.90;;;;;;;20.42;45.90;98416.03;4926368;29;20221;-87
2021/12/13 04:36:16;;;;;;;1.90;1.80;;;;;;;20.69;46.13;98457.38;4948377;29;20228;-87
2021/12/13 04:39:18;;;;;;;1.70;1.60;;;;;;;20.72;45.95;98468.56;4937353;29;20213;-87
2021/12/13 04:41:50;;;;;;;1.80;1.70;;;;;;;20.31;46.03;98396.78;4931851;29;20230;-89
2021/12/13 04:44:24;;;;;;;2.10;2.00;;;;;;;20.76;46.04;98467.94;4939385;29;20210;-88
2021/12/13 04:46:55;;;;;;;2.00;1.90;;;;;;;18.39;46.06;98094.88;4912737;29;20292;-87
2021/12/13 04:49:24;;;;;;;2.00;1.90;;;;;;;19.32;45.89;98244.81;4930740;29;20215;-88
2021/12/13 04:52:03;;;;;;;1.73;1.63;;;;;;;16.74;45.75;97815.09;4937938;29;20715;-88
2021/12/13 04:54:34;;;;;;;1.80;1.70;;;;;;;19.92;45.90;98331.94;4938061;29;20318;-88
2021/12/13 04:57:01;;;;;;;1.83;1.73;;;;;;;17.99;46.05;98035.09;4941886;29;20205;-88
2021/12/13 04:59:28;;;;;;;2.07;1.80;;;;;;;19.10;46.11;98183.34;4931826;29;20208;-90
2021/12/13 05:01:58;;;;;;;2.00;1.90;;;;;;;17.20;46.27;97905.56;4959673;28;20237;-88
2021/12/13 05:04:27;;;;;;;1.87;1.77;;;;;;;16.11;45.89;97675.59;4946052;29;20233;-88
2021/12/13 05:06:57;;;;;;;1.73;1.63;;;;;;;18.17;45.86;98059.81;4945739;29;20264;-87
2021/12/13 05:09:24;;;;;;;1.80;1.70;;;;;;;17.15;45.85;97868.03;4944992;29;20288;-89
2021/12/13 05:12:01;;;;;;;2.20;2.00;;;;;;;20.79;45.79;98493.63;4923012;29;20263;-89
2021/12/13 05:14:36;;;;;;;1.83;1.67;;;;;;;16.69;45.78;97787.75;4946540;29;20221;-88
2021/12/13 05:17:20;;;;;;;2.20;1.87;;;;;;;16.49;45.98;97742.69;4951054;29;20212;-88
2021/12/13 05:19:54;;;;;;;1.90;1.80;;;;;;;15.92;45.79;97670.34;4928911;29;20237;-87
2021/12/13 05:22:21;;;;;;;1.90;1.80;;;;;;;19.09;45.96;98199.44;4946322;29;20256;-89
2021/12/13 05:24:58;;;;;;;1.90;1.80;;;;;;;19.20;45.77;98250.91;4933438;29;20210;-88
2021/12/13 05:27:31;;;;;;;1.80;1.70;;;;;;;20.80;45.88;98499.59;4944448;29;20220;-88
2021/12/13 05:30:10;;;;;;;2.37;1.80;;;;;;;20.77;46.08;98497.78;4955334;29;20714;-87
2021/12/13 05:32:44;;;;;;;2.03;1.93;;;;;;;18.34;45.85;98073.38;4963504;28;20229;-89
2021/12/13 05:35:23;;;;;;;2.90;2.70;;;;;;;17.95;45.24;98021.34;4932688;29;20230;-88
2021/12/13 05:37:58;;;;;;;2.70;2.40;;;;;;;18.45;45.58;98127.38;4932744;29;20201;-88
2021/12/13 05:40:32;;;;;;;3.00;2.70;;;;;;;19.83;45.65;98338.25;4931550;29;20201;-87
2021/12/13 05:43:01;;;;;;;3.30;3.00;;;;;;;19.97;45.81;98357.66;4980049;23;20212;-92
2021/12/13 05:45:38;;;;;;;2.77;2.57;;;;;;;20.67;45.63;98487.06;4943766;28;20225;-91
2021/12/13 05:48:08;;;;;;;2.90;2.70;;;;;;;20.49;45.74;98463.19;4940884;28;20188;-92
2021/12/13 05:50:38;;;;;;;2.87;2.60;;;;;;;19.50;45.66;98294.13;4926247;28;20197;-92
2021/12/13 05:53:11;;;;;;;3.17;2.87;;;;;;;19.99;45.61;98382.44;4942128;28;20256;-92
2021/12/13 05:55:56;;;;;;;2.57;2.33;;;;;;;19.67;45.70;98353.63;4926528;29;20201;-92
2021/12/13 05:58:31;;;;;;;2.80;2.60;;;;;;;19.51;45.71;98298.44;4958442;28;20193;-92
2021/12/13 06:00:59;;;;;;;2.80;2.60;;;;;;;19.39;45.71;98276.56;4957874;28;20209;-91
2021/12/13 06:03:31;;;;;;;2.90;2.70;;;;;;;19.57;45.84;98313.16;4957095;28;20212;-91
2021/12/13 06:06:10;;;;;;;2.53;2.33;;;;;;;19.23;45.47;98258.72;4955867;28;20204;-92
2021/12/13 06:08:48;;;;;;;2.73;2.53;;;;;;;20.29;45.78;98439.25;4927829;29;20227;-91
2021/12/13 06:11:20;;;;;;;2.80;2.60;;;;;;;19.73;45.71;98346.25;4942000;28;20181;-92
2021/12/13 06:13:47;;;;;;;2.53;2.33;;;;;;;20.82;45.66;98534.66;4941322;28;20225;-91
2021/12/13 06:16:41;;;;;;;3.33;2.87;;;;;;;19.58;45.53;98328.53;4958132;28;20193;-91
2021/12/13 06:19:20;;;;;;;2.47;2.27;;;;;;;20.83;45.56;98540.63;4956292;28;20213;-91
2021/12/13 06:21:48;;;;;;;2.63;2.43;;;;;;;20.25;45.37;98439.03;4957887;28;20251;-91
2021/12/13 06:24:23;;;;;;;2.60;2.40;;;;;;;20.28;45.45;98446.84;4975743;28;20197;-92
2021/12/13 06:26:49;;;;;;;2.73;2.53;;;;;;;19.83;45.61;98371.41;4945230;29;20215;-91
2021/12/13 06:29:16;;;;;;;2.70;2.50;;;;;;;20.29;45.70;98457.13;4960402;28;20212;-91
2021/12/13 06:31:44;;;;;;;3.07;2.80;;;;;;;20.48;45.77;98485.28;4960215;28;20204;-91
2021/12/13 06:34:13;;;;;;;2.73;2.53;;;;;;;20.53;45.67;98496.59;4960090;28;20192;-91
2021/12/13 06:36:45;;;;;;;2.40;2.20;;;;;;;19.82;45.92;98384.97;4960323;28;20215;-92
2021/12/13 06:39:27;;;;;;;2.53;2.33;;;;;;;20.83;45.91;98548.28;4960976;28;20208;-91
2021/12/13 06:41:59;;;;;;;2.70;2.50;;;;;;;19.07;45.66;98253.66;4960604;28;20240;-92
2021/12/13 06:44:29;;;;;;;2.47;2.27;;;;;;;19.71;45.72;98365.69;4959898;28;20215;-91
2021/12/13 06:47:01;;;;;;;2.47;2.27;;;;;;;20.82;45.70;98549.09;4960622;28;20230;-92
2021/12/13 06:49:41;;;;;;;2.73;2.53;;;;;;;20.45;45.46;98484.25;4976198;28;20224;-91
2021/12/13 06:52:08;;;;;;;2.50;2.30;;;;;;;20.82;45.54;98560.22;4959341;28;20224;-91
2021/12/13 06:54:44;;;;;;;2.40;2.20;;;;;;;20.13;45.89;98448.63;4972011;28;20184;-92
2021/12/13 06:57:11;;;;;;;2.30;2.10;;;;;;;20.47;45.68;98497.97;4959785;28;20176;-92
2021/12/13 06:59:48;;;;;;;2.63;2.43;;;;;;;20.30;45.80;98475.84;4975949;28;20220;-92
2021/12/13 07:02:23;;;;;;;2.33;2.13;;;;;;;19.89;45.83;98402.31;4975413;28;20204;-91
2021/12/13 07:05:09;;;;;;;2.43;2.23;;;;;;;20.83;45.94;98567.06;4944049;29;20228;-92
2021/12/13 07:07:48;;;;;;;2.80;2.53;;;;;;;20.61;45.77;98533.63;4976202;28;20208;-90
2021/12/13 07:10:20;;;;;;;2.73;2.23;;;;;;;20.30;45.91;98491.16;4976351;28;20215;-92
2021/12/13 07:13:08;;;;;;;2.40;2.20;;;;;;;19.93;45.68;98432.31;4959602;28;20215;-91
2021/12/13 07:15:38;;;;;;;2.40;2.20;;;;;;;20.85;45.64;98583.34;4959391;28;20211;-91
2021/12/13 07:18:09;;;;;;;3.27;2.37;;;;;;;20.85;45.78;98585.91;4965562;28;20248;-92
2021/12/13 07:20:51;;;;;;;2.33;2.13;;;;;;;20.01;45.63;98443.75;4939420;28;20199;-92
2021/12/13 07:23:18;;;;;;;2.70;2.33;;;;;;;20.02;45.73;98454.03;4955865;28;20213;-91
2021/12/13 07:25:46;;;;;;;2.63;2.23;;;;;;;20.57;45.86;98554.69;4962618;28;20208;-90
2021/12/13 07:28:26;;;;;;;2.60;2.40;;;;;;;19.77;45.57;98410.25;4955888;28;20209;-91
2021/12/13 07:30:53;;;;;;;2.53;2.33;;;;;;;19.77;45.74;98424.66;4939821;28;20263;-90
2021/12/13 07:33:20;;;;;;;2.60;2.40;;;;;;;20.83;45.59;98597.72;4954764;28;20236;-90
2021/12/13 07:35:48;;;;;;;2.60;2.40;;;;;;;20.33;45.94;98514.28;4960683;28;20212;-90
2021/12/13 07:38:18;;;;;;;2.20;2.00;;;;;;;20.84;45.77;98599.47;4967929;28;20209;-90
2021/12/13 07:40:47;;;;;;;2.10;2.00;;;;;;;20.85;45.62;98600.34;4962351;28;20184;-91
2021/12/13 07:43:38;;;;;;;2.50;2.30;;;;;;;19.84;45.62;98432.72;4973370;28;20208;-91
2021/12/13 07:46:05;;;;;;;2.20;2.10;;;;;;;20.55;45.75;98542.66;4958775;28;20208;-91
2021/12/13 07:48:32;;;;;;;2.53;2.33;;;;;;;20.84;45.70;98598.63;4973317;29;20215;-92
2021/12/13 07:51:04;;;;;;;2.30;2.10;;;;;;;20.84;45.62;98598.63;4974652;28;20185;-91
2021/12/13 07:53:51;;;;;;;2.30;2.10;;;;;;;20.22;45.69;98502.69;4974296;28;20212;-91
2021/12/13 07:56:37;;;;;;;2.50;2.30;;;;;;;19.80;45.82;98418.06;4959118;28;20188;-91
2021/12/13 07:59:05;;;;;;;2.30;2.10;;;;;;;20.40;45.62;98524.03;4973766;28;20196;-91
2021/12/13 08:01:34;;;;;;;2.20;2.10;;;;;;;19.95;45.43;98456.19;4972634;28;20184;-91
2021/12/13 08:04:08;;;;;;;2.10;2.00;;;;;;;20.84;45.83;98593.50;4945318;28;20196;-91
2021/12/13 08:06:41;;;;;;;2.37;2.17;;;;;;;20.02;45.74;98459.94;4971478;28;20212;-92
2021/12/13 08:09:11;;;;;;;2.30;2.10;;;;;;;20.27;45.95;98499.56;4945857;28;20195;-91
2021/12/13 08:11:44;;;;;;;2.30;2.10;;;;;;;20.37;45.71;98529.84;4957510;28;20192;-92
2021/12/13 08:14:12;;;;;;;2.27;2.00;;;;;;;20.31;45.60;98509.09;4958637;28;20168;-92
2021/12/13 08:16:42;;;;;;;2.03;1.80;;;;;;;19.32;45.74;98348.41;4973340;28;20273;-91
2021/12/13 08:19:18;;;;;;;1.93;1.83;;;;;;;20.51;45.54;98543.28;4950030;28;20191;-91
2021/12/13 08:21:48;;;;;;;2.63;2.43;;;;;;;19.40;45.35;98349.69;4962694;28;20211;-92
2021/12/13 08:24:48;;;;;;;3.60;3.30;;;;;;;19.61;44.95;98397.53;4944342;28;20181;-91
2021/12/13 08:27:39;;;;;;;5.50;5.00;;;;;;;19.86;44.48;98427.69;4965612;28;20239;-92
2021/12/13 08:30:18;;;;;;;6.70;6.10;;;;;;;19.67;43.99;98412.25;4973049;28;20239;-92
2021/12/13 08:33:09;;;;;;;6.77;6.10;;;;;;;19.29;43.60;98336.41;4954207;28;20248;-91
2021/12/13 08:35:51;;;;;;;7.13;6.47;;;;;;;20.80;43.21;98618.00;4955639;28;20181;-92
2021/12/13 08:38:33;;;;;;;8.67;7.77;;;;;;;20.79;42.88;98617.94;4963734;28;20205;-91
2021/12/13 08:41:17;;;;;;;8.27;7.43;;;;;;;19.78;43.18;98457.91;4958393;28;20205;-92
2021/12/13 08:43:50;;;;;;;8.03;7.33;;;;;;;19.76;42.42;98463.75;4942442;28;20229;-92
2021/12/13 08:46:35;;;;;;;8.17;7.47;;;;;;;20.73;42.41;98613.41;4941307;28;20197;-92
2021/12/13 08:49:29;;;;;;;9.03;8.20;;;;;;;19.76;42.25;98446.78;4971699;28;20198;-91
2021/12/13 08:52:10;;;;;;;8.90;8.00;;;;;;;20.71;41.99;98612.44;4972345;28;20232;-92
2021/12/13 08:54:43;;;;;;;9.07;8.17;;;;;;;20.70;41.82;98617.47;4976178;28;20192;-91
2021/12/13 08:57:47;;;;;;;8.90;8.10;;;;;;;20.68;41.74;98619.97;4973809;28;20196;-92
2021/12/13 09:00:14;;;;;;;9.07;8.27;;;;;;;20.67;42.39;98622.44;4925730;28;20190;-92
2021/12/13 09:02:44;;;;;;;9.67;8.77;;;;;;;19.14;41.95;98365.28;4962540;28;20228;-91
2021/12/13 09:05:17;;;;;;;9.70;8.80;;;;;;;18.99;42.14;98344.09;4961633;28;20190;-92
2021/12/13 09:07:56;;;;;;;11.30;10.20;;;;;;;20.32;42.10;98581.47;4946862;28;20216;-91
2021/12/13 09:10:54;;;;;;;10.30;9.30;;;;;;;19.53;41.63;98446.38;4923660;28;20189;-91
2021/12/13 09:13:43;;;;;;;11.00;9.90;;;;;;;19.86;41.88;98502.53;4953920;28;20220;-91
2021/12/13 09:16:16;;;;;;;10.17;9.13;;;;;;;19.45;42.04;98445.97;4938810;29;20190;-92
2021/12/13 09:18:42;;;;;;;10.57;9.57;;;;;;;19.41;41.46;98425.34;4971892;28;20181;-92
2021/12/13 09:21:09;;;;;;;10.80;9.70;;;;;;;19.83;41.20;98504.94;4974059;28;20188;-91
2021/12/13 09:23:45;;;;;;;9.97;9.07;;;;;;;19.56;41.66;98446.53;4976565;28;20220;-91
2021/12/13 09:26:16;;;;;;;10.93;9.90;;;;;;;19.85;41.89;98505.03;4976499;28;20188;-91
2021/12/13 09:29:01;;;;;;;9.50;8.63;;;;;;;19.67;41.89;98474.34;4962304;28;20185;-92
2021/12/13 09:31:34;;;;;;;10.00;9.00;;;;;;;19.72;42.08;98487.34;4948658;29;20185;-91
2021/12/13 09:34:16;;;;;;;9.13;8.23;;;;;;;20.05;42.12;98542.66;4941227;29;20204;-91
2021/12/13 09:36:44;;;;;;;9.43;8.57;;;;;;;19.92;42.42;98525.81;4966842;28;20204;-91
2021/12/13 09:39:21;;;;;;;9.37;8.50;;;;;;;20.11;42.39;98553.16;4976489;28;20201;-91
2021/12/13 09:41:49;;;;;;;8.73;7.93;;;;;;;20.11;42.65;98554.81;4947348;28;20181;-91
2021/12/13 09:44:29;;;;;;;8.20;7.40;;;;;;;19.94;42.81;98526.78;4955690;29;20216;-90
2021/12/13 09:46:55;;;;;;;9.07;8.17;;;;;;;20.67;42.96;98647.97;4942143;28;20251;-91
2021/12/13 09:49:25;;;;;;;8.40;7.67;;;;;;;20.67;42.84;98637.75;4957355;28;20181;-92
2021/12/13 09:52:06;;;;;;;8.53;7.73;;;;;;;20.13;42.99;98543.91;4957390;28;20228;-90
2021/12/13 09:54:55;;;;;;;7.90;7.17;;;;;;;20.68;43.00;98640.41;4957090;28;20675;-91
2021/12/13 09:57:29;;;;;;;7.17;6.57;;;;;;;19.91;43.28;98495.13;4941452;28;20200;-90
2021/12/13 10:00:06;;;;;;;7.07;6.37;;;;;;;20.35;43.04;98585.06;4958437;29;20205;-92
2021/12/13 10:02:36;;;;;;;6.93;6.23;;;;;;;19.69;43.19;98467.63;4940130;29;20253;-91
2021/12/13 10:05:04;;;;;;;7.43;6.73;;;;;;;19.98;43.40;98521.84;4940197;29;20228;-91
2021/12/13 10:07:35;;;;;;;8.80;6.53;;;;;;;20.36;43.34;98576.59;4956199;28;20232;-91
2021/12/13 10:10:08;;;;;;;7.13;6.50;;;;;;;20.16;43.25;98528.75;4924507;29;20673;-90
2021/12/13 10:12:41;;;;;;;6.80;6.20;;;;;;;20.73;43.47;98630.41;4940218;29;20213;-91
2021/12/13 10:15:32;;;;;;;6.73;6.13;;;;;;;20.44;43.29;98582.09;4955887;28;20169;-91
2021/12/13 10:18:03;;;;;;;6.07;5.47;;;;;;;20.18;43.36;98532.28;4946286;29;20177;-91
2021/12/13 10:20:40;;;;;;;6.37;5.77;;;;;;;20.75;43.52;98619.44;4958778;28;20212;-91
2021/12/13 10:23:09;;;;;;;6.73;6.03;;;;;;;19.49;43.75;98404.56;4944190;29;20229;-91
2021/12/13 10:25:38;;;;;;;6.27;5.70;;;;;;;20.18;43.53;98510.97;4940270;28;20256;-91
2021/12/13 10:28:08;;;;;;;6.53;5.73;;;;;;;19.69;43.34;98442.13;4955799;29;20228;-91
2021/12/13 10:30:39;;;;;;;6.43;5.83;;;;;;;19.98;43.62;98479.31;4958471;29;20219;-91
2021/12/13 10:33:05;;;;;;;5.70;5.20;;;;;;;20.07;43.61;98496.78;4961677;28;20235;-90
2021/12/13 10:35:35;;;;;;;5.70;5.20;;;;;;;20.21;43.71;98521.34;4973860;29;20204;-91
2021/12/13 10:38:08;;;;;;;6.73;5.57;;;;;;;20.48;43.77;98568.66;4976060;28;20208;-91
2021/12/13 10:40:39;;;;;;;5.80;5.30;;;;;;;20.24;43.83;98521.50;4956744;28;20193;-91
2021/12/13 10:43:12;;;;;;;5.40;4.90;;;;;;;20.58;43.78;98592.22;4939428;29;20233;-91
2021/12/13 10:45:42;;;;;;;5.07;4.60;;;;;;;19.88;43.81;98462.69;4939482;28;20252;-91
2021/12/13 10:48:11;;;;;;;5.20;4.80;;;;;;;20.25;43.88;98526.66;4940227;29;20561;-91
2021/12/13 10:50:55;;;;;;;5.40;4.90;;;;;;;19.87;43.84;98468.56;4939462;29;20196;-90
2021/12/13 10:53:26;;;;;;;5.00;4.50;;;;;;;19.66;44.47;98421.56;4949627;29;20217;-91
2021/12/13 10:55:58;;;;;;;4.80;4.40;;;;;;;20.24;43.98;98524.94;4951408;29;20204;-91
2021/12/13 10:58:27;;;;;;;4.80;4.40;;;;;;;20.18;43.92;98503.31;4949546;29;20189;-91
2021/12/13 11:01:14;;;;;;;6.20;5.70;;;;;;;19.94;43.17;98465.56;4939468;29;20217;-91
2021/12/13 11:03:41;;;;;;;9.20;8.33;;;;;;;19.98;42.80;98461.47;4955277;28;20204;-92
2021/12/13 11:06:08;;;;;;;8.30;7.40;;;;;;;19.76;42.49;98439.13;4960930;28;20212;-90
2021/12/13 11:08:41;;;;;;;7.47;6.77;;;;;;;20.01;43.09;98466.72;4959317;29;20212;-91
2021/12/13 11:11:13;;;;;;;7.50;6.80;;;;;;;20.42;43.37;98533.50;4975216;28;20207;-90
2021/12/13 11:13:39;;;;;;;6.67;6.07;;;;;;;19.91;43.58;98447.53;4972686;28;20203;-91
2021/12/13 11:16:19;;;;;;;7.40;6.70;;;;;;;19.40;43.71;98370.06;4942888;28;20197;-91
2021/12/13 11:18:45;;;;;;;7.57;6.17;;;;;;;19.92;43.76;98454.38;4939383;28;20248;-91
2021/12/13 11:21:19;;;;;;;5.50;5.00;;;;;;;19.46;43.58;98368.72;4959602;28;20233;-90
2021/12/13 11:23:46;;;;;;;6.00;5.40;;;;;;;20.62;44.01;98581.34;4940648;28;20201;-91
2021/12/13 11:26:16;;;;;;;6.17;5.57;;;;;;;19.63;44.03;98403.56;4937625;28;20185;-92
2021/12/13 11:28:43;;;;;;;6.20;5.70;;;;;;;19.11;44.13;98314.16;4940954;28;20232;-92
2021/12/13 11:31:29;;;;;;;6.03;5.43;;;;;;;19.50;43.91;98385.91;4937092;28;20208;-92
2021/12/13 11:33:58;;;;;;;5.63;5.13;;;;;;;20.75;43.39;98582.84;4957131;28;20240;-92
2021/12/13 11:36:50;;;;;;;6.33;5.73;;;;;;;20.75;43.80;98576.03;4957769;28;20217;-93
2021/12/13 11:39:47;;;;;;;5.47;4.97;;;;;;;20.77;43.85;98589.75;4957627;28;20264;-92
2021/12/13 11:42:34;;;;;;;5.97;5.43;;;;;;;19.90;44.00;98430.47;4981106;23;20206;-88
2021/12/13 11:45:27;;;;;;;5.43;4.93;;;;;;;20.77;43.96;98578.66;4980285;28;20207;-89
2021/12/13 11:48:17;;;;;;;5.43;4.93;;;;;;;20.76;44.08;98564.13;4986118;28;20284;-88
2021/12/13 11:51:10;;;;;;;5.80;5.20;;;;;;;18.50;43.95;98184.50;4985540;28;20210;-89
2021/12/13 11:53:59;;;;;;;7.73;5.00;;;;;;;20.77;44.09;98556.53;4969192;28;20511;-89
2021/12/13 11:56:44;;;;;;;5.33;4.90;;;;;;;20.77;44.04;98560.78;4983232;28;20208;-89
2021/12/13 11:59:26;;;;;;;4.80;4.40;;;;;;;20.78;44.15;98554.88;4981850;28;20732;-89
2021/12/13 12:02:02;;;;;;;5.00;4.60;;;;;;;20.78;44.10;98560.84;4985355;28;20463;-88
2021/12/13 12:05:06;;;;;;;4.97;4.47;;;;;;;20.79;44.07;98560.06;4981483;28;20219;-88
2021/12/13 12:07:55;;;;;;;5.23;4.73;;;;;;;20.80;43.95;98556.69;4985950;28;20215;-89
2021/12/13 12:10:46;;;;;;;5.33;4.83;;;;;;;20.80;43.87;98553.25;4988901;28;20211;-89
2021/12/13 12:13:36;;;;;;;5.47;4.97;;;;;;;20.79;44.02;98557.50;4968753;28;20231;-87
2021/12/13 12:16:04;;;;;;;4.93;4.43;;;;;;;18.57;44.16;98166.19;4986883;28;20273;-89
2021/12/13 12:18:34;;;;;;;4.90;4.40;;;;;;;18.65;43.79;98170.84;4981053;28;20196;-89